sensor_id;sensor_type;location;lat;lon;timestamp;P1;durP1;ratioP1;P2;durP2;ratioP2
11151;SDS011;5630;49.342;10.802;2023-11-19T00:00:06;6.37;;;5.77;;
11151;SDS011;5630;49.342;10.802;2023-11-19T00:02:37;6.67;;;5.93;;
11151;SDS011;5630;49.342;10.802;2023-11-19T00:05:03;6.80;;;6.10;;
11151;SDS011;5630;49.342;10.802;2023-11-19T00:07:29;6.90;;;6.10;;
11151;SDS011;5630;49.342;10.802;2023-11-19T00:09:54;6.67;;;6.07;;
11151;SDS011;5630;49.342;10.802;2023-11-19T00:12:20;6.37;;;5.77;;
11151;SDS011;5630;49.342;10.802;2023-11-19T00:14:45;6.70;;;5.83;;
11151;SDS011;5630;49.342;10.802;2023-11-19T00:17:11;6.47;;;5.87;;
11151;SDS011;5630;49.342;10.802;2023-11-19T00:19:37;6.93;;;6.27;;
11151;SDS011;5630;49.342;10.802;2023-11-19T00:22:02;7.87;;;6.43;;
11151;SDS011;5630;49.342;10.802;2023-11-19T00:24:29;7.23;;;6.60;;
11151;SDS011;5630;49.342;10.802;2023-11-19T00:26:55;6.60;;;6.00;;
11151;SDS011;5630;49.342;10.802;2023-11-19T00:29:21;7.00;;;6.40;;
11151;SDS011;5630;49.342;10.802;2023-11-19T00:31:47;7.10;;;6.40;;
11151;SDS011;5630;49.342;10.802;2023-11-19T00:34:12;8.40;;;6.57;;
11151;SDS011;5630;49.342;10.802;2023-11-19T00:36:38;8.50;;;6.20;;
11151;SDS011;5630;49.342;10.802;2023-11-19T00:39:04;7.57;;;6.87;;
11151;SDS011;5630;49.342;10.802;2023-11-19T00:41:30;7.47;;;6.77;;
11151;SDS011;5630;49.342;10.802;2023-11-19T00:43:56;7.30;;;6.60;;
11151;SDS011;5630;49.342;10.802;2023-11-19T00:46:21;8.40;;;6.50;;
11151;SDS011;5630;49.342;10.802;2023-11-19T00:48:47;7.30;;;6.60;;
11151;SDS011;5630;49.342;10.802;2023-11-19T00:51:13;9.33;;;6.10;;
11151;SDS011;5630;49.342;10.802;2023-11-19T00:53:39;7.80;;;6.20;;
11151;SDS011;5630;49.342;10.802;2023-11-19T00:56:04;7.10;;;6.40;;
11151;SDS011;5630;49.342;10.802;2023-11-19T00:58:30;7.97;;;6.60;;
11151;SDS011;5630;49.342;10.802;2023-11-19T01:00:56;7.30;;;6.60;;
11151;SDS011;5630;49.342;10.802;2023-11-19T01:03:22;7.80;;;7.10;;
11151;SDS011;5630;49.342;10.802;2023-11-19T01:05:48;7.10;;;6.40;;
11151;SDS011;5630;49.342;10.802;2023-11-19T01:08:13;6.97;;;6.23;;
11151;SDS011;5630;49.342;10.802;2023-11-19T01:10:41;7.00;;;6.30;;
11151;SDS011;5630;49.342;10.802;2023-11-19T01:13:06;6.07;;;5.47;;
11151;SDS011;5630;49.342;10.802;2023-11-19T01:15:32;6.70;;;6.10;;
11151;SDS011;5630;49.342;10.802;2023-11-19T01:17:57;6.00;;;5.50;;
11151;SDS011;5630;49.342;10.802;2023-11-19T01:20:23;7.07;;;6.20;;
11151;SDS011;5630;49.342;10.802;2023-11-19T01:22:49;6.83;;;6.13;;
11151;SDS011;5630;49.342;10.802;2023-11-19T01:25:15;6.67;;;6.07;;
11151;SDS011;5630;49.342;10.802;2023-11-19T01:27:41;6.47;;;5.87;;
11151;SDS011;5630;49.342;10.802;2023-11-19T01:30:07;6.27;;;5.67;;
11151;SDS011;5630;49.342;10.802;2023-11-19T01:32:35;6.30;;;5.70;;
11151;SDS011;5630;49.342;10.802;2023-11-19T01:35:01;7.20;;;6.60;;
11151;SDS011;5630;49.342;10.802;2023-11-19T01:37:28;7.07;;;5.47;;
11151;SDS011;5630;49.342;10.802;2023-11-19T01:39:54;6.30;;;5.70;;
11151;SDS011;5630;49.342;10.802;2023-11-19T01:42:19;6.07;;;5.57;;
11151;SDS011;5630;49.342;10.802;2023-11-19T01:44:54;6.67;;;6.17;;
11151;SDS011;5630;49.342;10.802;2023-11-19T01:47:27;6.93;;;6.23;;
11151;SDS011;5630;49.342;10.802;2023-11-19T01:49:55;6.70;;;6.10;;
11151;SDS011;5630;49.342;10.802;2023-11-19T01:52:22;7.63;;;6.30;;
11151;SDS011;5630;49.342;10.802;2023-11-19T01:54:48;6.90;;;6.30;;
11151;SDS011;5630;49.342;10.802;2023-11-19T01:57:15;6.70;;;6.10;;
11151;SDS011;5630;49.342;10.802;2023-11-19T01:59:41;6.83;;;6.13;;
11151;SDS011;5630;49.342;10.802;2023-11-19T02:02:07;7.20;;;6.50;;
11151;SDS011;5630;49.342;10.802;2023-11-19T02:04:33;7.60;;;6.53;;
11151;SDS011;5630;49.342;10.802;2023-11-19T02:06:59;9.13;;;7.27;;
11151;SDS011;5630;49.342;10.802;2023-11-19T02:09:25;7.93;;;7.23;;
11151;SDS011;5630;49.342;10.802;2023-11-19T02:11:52;7.67;;;7.03;;
11151;SDS011;5630;49.342;10.802;2023-11-19T02:14:18;8.60;;;7.77;;
11151;SDS011;5630;49.342;10.802;2023-11-19T02:16:48;8.70;;;7.97;;
11151;SDS011;5630;49.342;10.802;2023-11-19T02:19:14;8.57;;;7.77;;
11151;SDS011;5630;49.342;10.802;2023-11-19T02:21:39;9.77;;;8.87;;
11151;SDS011;5630;49.342;10.802;2023-11-19T02:24:07;9.33;;;8.43;;
11151;SDS011;5630;49.342;10.802;2023-11-19T02:26:39;9.90;;;9.00;;
11151;SDS011;5630;49.342;10.802;2023-11-19T02:29:11;9.33;;;8.43;;
11151;SDS011;5630;49.342;10.802;2023-11-19T02:31:37;10.93;;;9.83;;
11151;SDS011;5630;49.342;10.802;2023-11-19T02:34:03;11.07;;;10.07;;
11151;SDS011;5630;49.342;10.802;2023-11-19T02:36:28;10.63;;;9.60;;
11151;SDS011;5630;49.342;10.802;2023-11-19T02:38:54;9.87;;;8.97;;
11151;SDS011;5630;49.342;10.802;2023-11-19T02:41:20;17.73;;;12.87;;
11151;SDS011;5630;49.342;10.802;2023-11-19T02:43:45;17.00;;;11.93;;
11151;SDS011;5630;49.342;10.802;2023-11-19T02:46:13;10.87;;;9.87;;
11151;SDS011;5630;49.342;10.802;2023-11-19T02:48:39;13.47;;;10.83;;
11151;SDS011;5630;49.342;10.802;2023-11-19T02:51:05;11.67;;;10.57;;
11151;SDS011;5630;49.342;10.802;2023-11-19T02:53:34;12.07;;;10.87;;
11151;SDS011;5630;49.342;10.802;2023-11-19T02:56:00;11.10;;;10.00;;
11151;SDS011;5630;49.342;10.802;2023-11-19T02:58:31;11.67;;;10.50;;
11151;SDS011;5630;49.342;10.802;2023-11-19T03:00:57;11.70;;;10.50;;
11151;SDS011;5630;49.342;10.802;2023-11-19T03:03:26;10.23;;;9.33;;
11151;SDS011;5630;49.342;10.802;2023-11-19T03:06:04;11.60;;;10.40;;
11151;SDS011;5630;49.342;10.802;2023-11-19T03:08:31;10.20;;;9.30;;
11151;SDS011;5630;49.342;10.802;2023-11-19T03:10:57;10.60;;;9.60;;
11151;SDS011;5630;49.342;10.802;2023-11-19T03:13:24;10.43;;;9.43;;
11151;SDS011;5630;49.342;10.802;2023-11-19T03:15:49;9.60;;;8.63;;
11151;SDS011;5630;49.342;10.802;2023-11-19T03:18:16;9.57;;;8.57;;
11151;SDS011;5630;49.342;10.802;2023-11-19T03:20:42;9.87;;;8.87;;
11151;SDS011;5630;49.342;10.802;2023-11-19T03:23:07;8.43;;;7.70;;
11151;SDS011;5630;49.342;10.802;2023-11-19T03:25:33;8.60;;;7.80;;
11151;SDS011;5630;49.342;10.802;2023-11-19T03:27:59;8.27;;;7.47;;
11151;SDS011;5630;49.342;10.802;2023-11-19T03:30:28;9.07;;;8.17;;
11151;SDS011;5630;49.342;10.802;2023-11-19T03:32:55;8.73;;;7.93;;
11151;SDS011;5630;49.342;10.802;2023-11-19T03:35:22;9.13;;;8.23;;
11151;SDS011;5630;49.342;10.802;2023-11-19T03:37:49;8.77;;;7.97;;
11151;SDS011;5630;49.342;10.802;2023-11-19T03:40:15;8.17;;;7.37;;
11151;SDS011;5630;49.342;10.802;2023-11-19T03:42:41;7.87;;;7.13;;
11151;SDS011;5630;49.342;10.802;2023-11-19T03:45:07;8.73;;;7.90;;
11151;SDS011;5630;49.342;10.802;2023-11-19T03:47:36;8.40;;;7.60;;
11151;SDS011;5630;49.342;10.802;2023-11-19T03:50:02;7.43;;;6.73;;
11151;SDS011;5630;49.342;10.802;2023-11-19T03:52:28;8.47;;;7.67;;
11151;SDS011;5630;49.342;10.802;2023-11-19T03:54:54;7.50;;;6.80;;
11151;SDS011;5630;49.342;10.802;2023-11-19T03:57:20;7.10;;;6.40;;
11151;SDS011;5630;49.342;10.802;2023-11-19T03:59:46;6.73;;;5.87;;
11151;SDS011;5630;49.342;10.802;2023-11-19T04:02:12;6.93;;;6.27;;
11151;SDS011;5630;49.342;10.802;2023-11-19T04:04:38;5.97;;;5.40;;
11151;SDS011;5630;49.342;10.802;2023-11-19T04:07:04;6.60;;;6.00;;
11151;SDS011;5630;49.342;10.802;2023-11-19T04:09:30;6.37;;;5.77;;
11151;SDS011;5630;49.342;10.802;2023-11-19T04:11:57;6.87;;;5.53;;
11151;SDS011;5630;49.342;10.802;2023-11-19T04:14:23;5.77;;;5.27;;
11151;SDS011;5630;49.342;10.802;2023-11-19T04:16:49;6.10;;;5.50;;
11151;SDS011;5630;49.342;10.802;2023-11-19T04:19:16;6.10;;;5.27;;
11151;SDS011;5630;49.342;10.802;2023-11-19T04:21:41;6.20;;;5.60;;
11151;SDS011;5630;49.342;10.802;2023-11-19T04:24:08;5.90;;;5.27;;
11151;SDS011;5630;49.342;10.802;2023-11-19T04:26:39;5.37;;;4.87;;
11151;SDS011;5630;49.342;10.802;2023-11-19T04:29:06;5.50;;;4.97;;
11151;SDS011;5630;49.342;10.802;2023-11-19T04:31:33;5.20;;;4.70;;
11151;SDS011;5630;49.342;10.802;2023-11-19T04:33:59;4.77;;;4.37;;
11151;SDS011;5630;49.342;10.802;2023-11-19T04:36:25;5.47;;;3.73;;
11151;SDS011;5630;49.342;10.802;2023-11-19T04:38:51;5.03;;;4.07;;
11151;SDS011;5630;49.342;10.802;2023-11-19T04:41:16;4.67;;;4.10;;
11151;SDS011;5630;49.342;10.802;2023-11-19T04:43:42;3.60;;;3.30;;
11151;SDS011;5630;49.342;10.802;2023-11-19T04:46:09;3.57;;;3.27;;
11151;SDS011;5630;49.342;10.802;2023-11-19T04:48:35;3.50;;;3.20;;
11151;SDS011;5630;49.342;10.802;2023-11-19T04:51:00;3.67;;;3.37;;
11151;SDS011;5630;49.342;10.802;2023-11-19T04:53:26;3.47;;;3.17;;
11151;SDS011;5630;49.342;10.802;2023-11-19T04:55:51;3.53;;;3.00;;
11151;SDS011;5630;49.342;10.802;2023-11-19T04:58:17;4.17;;;3.00;;
11151;SDS011;5630;49.342;10.802;2023-11-19T05:00:44;3.20;;;2.90;;
11151;SDS011;5630;49.342;10.802;2023-11-19T05:03:10;3.80;;;2.90;;
11151;SDS011;5630;49.342;10.802;2023-11-19T05:05:36;3.43;;;3.13;;
11151;SDS011;5630;49.342;10.802;2023-11-19T05:08:01;3.50;;;2.60;;
11151;SDS011;5630;49.342;10.802;2023-11-19T05:10:27;3.10;;;2.70;;
11151;SDS011;5630;49.342;10.802;2023-11-19T05:12:53;2.63;;;2.40;;
11151;SDS011;5630;49.342;10.802;2023-11-19T05:15:21;2.37;;;2.17;;
11151;SDS011;5630;49.342;10.802;2023-11-19T05:17:46;2.70;;;2.37;;
11151;SDS011;5630;49.342;10.802;2023-11-19T05:20:12;4.47;;;2.17;;
11151;SDS011;5630;49.342;10.802;2023-11-19T05:22:41;2.33;;;2.10;;
11151;SDS011;5630;49.342;10.802;2023-11-19T05:25:07;2.30;;;2.10;;
11151;SDS011;5630;49.342;10.802;2023-11-19T05:27:36;2.03;;;1.80;;
11151;SDS011;5630;49.342;10.802;2023-11-19T05:30:03;2.03;;;1.90;;
11151;SDS011;5630;49.342;10.802;2023-11-19T05:32:32;2.60;;;1.70;;
11151;SDS011;5630;49.342;10.802;2023-11-19T05:34:58;2.30;;;1.50;;
11151;SDS011;5630;49.342;10.802;2023-11-19T05:37:23;1.90;;;1.80;;
11151;SDS011;5630;49.342;10.802;2023-11-19T05:39:50;2.70;;;1.80;;
11151;SDS011;5630;49.342;10.802;2023-11-19T05:42:15;3.90;;;1.60;;
11151;SDS011;5630;49.342;10.802;2023-11-19T05:44:41;1.70;;;1.60;;
11151;SDS011;5630;49.342;10.802;2023-11-19T05:47:06;2.43;;;1.50;;
11151;SDS011;5630;49.342;10.802;2023-11-19T05:49:32;1.50;;;1.40;;
11151;SDS011;5630;49.342;10.802;2023-11-19T05:51:58;1.47;;;1.37;;
11151;SDS011;5630;49.342;10.802;2023-11-19T05:54:24;1.37;;;1.23;;
11151;SDS011;5630;49.342;10.802;2023-11-19T05:56:51;1.63;;;1.33;;
11151;SDS011;5630;49.342;10.802;2023-11-19T05:59:19;1.27;;;1.17;;
11151;SDS011;5630;49.342;10.802;2023-11-19T06:01:44;1.10;;;1.00;;
11151;SDS011;5630;49.342;10.802;2023-11-19T06:04:10;2.03;;;1.43;;
11151;SDS011;5630;49.342;10.802;2023-11-19T06:06:36;1.63;;;1.53;;
11151;SDS011;5630;49.342;10.802;2023-11-19T06:09:02;12.93;;;9.13;;
11151;SDS011;5630;49.342;10.802;2023-11-19T06:11:28;1.20;;;1.10;;
11151;SDS011;5630;49.342;10.802;2023-11-19T06:13:53;2.93;;;1.00;;
11151;SDS011;5630;49.342;10.802;2023-11-19T06:16:20;1.00;;;1.00;;
11151;SDS011;5630;49.342;10.802;2023-11-19T06:18:46;1.63;;;1.00;;
11151;SDS011;5630;49.342;10.802;2023-11-19T06:21:14;3.03;;;1.10;;
11151;SDS011;5630;49.342;10.802;2023-11-19T06:23:41;0.90;;;0.90;;
11151;SDS011;5630;49.342;10.802;2023-11-19T06:26:07;0.90;;;0.90;;
11151;SDS011;5630;49.342;10.802;2023-11-19T06:28:33;2.63;;;0.73;;
11151;SDS011;5630;49.342;10.802;2023-11-19T06:30:59;0.90;;;0.90;;
11151;SDS011;5630;49.342;10.802;2023-11-19T06:33:25;1.13;;;0.83;;
11151;SDS011;5630;49.342;10.802;2023-11-19T06:35:51;1.10;;;1.00;;
11151;SDS011;5630;49.342;10.802;2023-11-19T06:38:17;1.23;;;1.10;;
11151;SDS011;5630;49.342;10.802;2023-11-19T06:40:42;0.83;;;0.80;;
11151;SDS011;5630;49.342;10.802;2023-11-19T06:43:08;1.63;;;1.00;;
11151;SDS011;5630;49.342;10.802;2023-11-19T06:45:34;0.90;;;0.90;;
11151;SDS011;5630;49.342;10.802;2023-11-19T06:48:03;0.73;;;0.73;;
11151;SDS011;5630;49.342;10.802;2023-11-19T06:50:30;1.50;;;1.00;;
11151;SDS011;5630;49.342;10.802;2023-11-19T06:52:55;1.17;;;1.00;;
11151;SDS011;5630;49.342;10.802;2023-11-19T06:55:21;1.30;;;0.80;;
11151;SDS011;5630;49.342;10.802;2023-11-19T06:57:47;2.00;;;0.97;;
11151;SDS011;5630;49.342;10.802;2023-11-19T07:00:12;2.10;;;0.97;;
11151;SDS011;5630;49.342;10.802;2023-11-19T07:02:38;1.00;;;0.80;;
11151;SDS011;5630;49.342;10.802;2023-11-19T07:05:04;1.27;;;0.90;;
11151;SDS011;5630;49.342;10.802;2023-11-19T07:07:31;3.30;;;1.00;;
11151;SDS011;5630;49.342;10.802;2023-11-19T07:09:57;0.80;;;0.80;;
11151;SDS011;5630;49.342;10.802;2023-11-19T07:12:23;0.80;;;0.80;;
11151;SDS011;5630;49.342;10.802;2023-11-19T07:14:51;0.60;;;0.60;;
11151;SDS011;5630;49.342;10.802;2023-11-19T07:17:17;1.13;;;0.87;;
11151;SDS011;5630;49.342;10.802;2023-11-19T07:19:43;0.80;;;0.80;;
11151;SDS011;5630;49.342;10.802;2023-11-19T07:22:09;1.37;;;0.90;;
11151;SDS011;5630;49.342;10.802;2023-11-19T07:24:36;1.60;;;0.80;;
11151;SDS011;5630;49.342;10.802;2023-11-19T07:27:04;1.60;;;1.00;;
11151;SDS011;5630;49.342;10.802;2023-11-19T07:29:29;2.03;;;0.90;;
11151;SDS011;5630;49.342;10.802;2023-11-19T07:31:56;1.87;;;0.93;;
11151;SDS011;5630;49.342;10.802;2023-11-19T07:34:22;0.90;;;0.90;;
11151;SDS011;5630;49.342;10.802;2023-11-19T07:36:48;0.83;;;0.83;;
11151;SDS011;5630;49.342;10.802;2023-11-19T07:39:14;1.00;;;1.00;;
11151;SDS011;5630;49.342;10.802;2023-11-19T07:41:39;1.27;;;1.17;;
11151;SDS011;5630;49.342;10.802;2023-11-19T07:44:05;3.47;;;1.50;;
11151;SDS011;5630;49.342;10.802;2023-11-19T07:46:31;3.63;;;1.50;;
11151;SDS011;5630;49.342;10.802;2023-11-19T07:48:57;3.13;;;1.50;;
11151;SDS011;5630;49.342;10.802;2023-11-19T07:51:22;1.60;;;1.50;;
11151;SDS011;5630;49.342;10.802;2023-11-19T07:53:48;1.63;;;1.53;;
11151;SDS011;5630;49.342;10.802;2023-11-19T07:56:14;2.00;;;1.63;;
11151;SDS011;5630;49.342;10.802;2023-11-19T07:58:40;2.07;;;1.50;;
11151;SDS011;5630;49.342;10.802;2023-11-19T08:01:06;2.47;;;1.90;;
11151;SDS011;5630;49.342;10.802;2023-11-19T08:03:31;2.00;;;1.80;;
11151;SDS011;5630;49.342;10.802;2023-11-19T08:05:59;2.33;;;1.87;;
11151;SDS011;5630;49.342;10.802;2023-11-19T08:08:24;3.13;;;2.03;;
11151;SDS011;5630;49.342;10.802;2023-11-19T08:10:50;3.60;;;1.90;;
11151;SDS011;5630;49.342;10.802;2023-11-19T08:13:20;3.37;;;1.70;;
11151;SDS011;5630;49.342;10.802;2023-11-19T08:15:46;2.33;;;1.70;;
11151;SDS011;5630;49.342;10.802;2023-11-19T08:18:12;1.80;;;1.60;;
11151;SDS011;5630;49.342;10.802;2023-11-19T08:20:38;1.60;;;1.50;;
11151;SDS011;5630;49.342;10.802;2023-11-19T08:23:03;5.37;;;3.27;;
11151;SDS011;5630;49.342;10.802;2023-11-19T08:25:30;2.80;;;2.60;;
11151;SDS011;5630;49.342;10.802;2023-11-19T08:27:55;3.30;;;2.00;;
11151;SDS011;5630;49.342;10.802;2023-11-19T08:30:21;3.43;;;1.90;;
11151;SDS011;5630;49.342;10.802;2023-11-19T08:32:46;2.60;;;2.00;;
11151;SDS011;5630;49.342;10.802;2023-11-19T08:35:12;4.60;;;2.00;;
11151;SDS011;5630;49.342;10.802;2023-11-19T08:37:37;4.00;;;2.17;;
11151;SDS011;5630;49.342;10.802;2023-11-19T08:40:03;2.63;;;2.30;;
11151;SDS011;5630;49.342;10.802;2023-11-19T08:42:30;2.90;;;2.30;;
11151;SDS011;5630;49.342;10.802;2023-11-19T08:44:55;2.50;;;2.30;;
11151;SDS011;5630;49.342;10.802;2023-11-19T08:47:21;4.10;;;1.93;;
11151;SDS011;5630;49.342;10.802;2023-11-19T08:49:48;3.07;;;1.73;;
11151;SDS011;5630;49.342;10.802;2023-11-19T08:52:20;2.10;;;1.73;;
11151;SDS011;5630;49.342;10.802;2023-11-19T08:54:45;2.37;;;1.80;;
11151;SDS011;5630;49.342;10.802;2023-11-19T08:57:11;2.23;;;1.50;;
11151;SDS011;5630;49.342;10.802;2023-11-19T08:59:37;3.47;;;1.93;;
11151;SDS011;5630;49.342;10.802;2023-11-19T09:02:05;2.83;;;1.87;;
11151;SDS011;5630;49.342;10.802;2023-11-19T09:04:31;3.30;;;2.03;;
11151;SDS011;5630;49.342;10.802;2023-11-19T09:06:57;4.93;;;1.40;;
11151;SDS011;5630;49.342;10.802;2023-11-19T09:09:23;2.37;;;1.70;;
11151;SDS011;5630;49.342;10.802;2023-11-19T09:11:48;3.33;;;1.50;;
11151;SDS011;5630;49.342;10.802;2023-11-19T09:14:14;3.67;;;1.40;;
11151;SDS011;5630;49.342;10.802;2023-11-19T09:16:40;3.10;;;1.73;;
11151;SDS011;5630;49.342;10.802;2023-11-19T09:19:06;3.33;;;1.40;;
11151;SDS011;5630;49.342;10.802;2023-11-19T09:21:31;3.03;;;2.00;;
11151;SDS011;5630;49.342;10.802;2023-11-19T09:23:59;6.80;;;4.17;;
11151;SDS011;5630;49.342;10.802;2023-11-19T09:26:25;10.83;;;6.80;;
11151;SDS011;5630;49.342;10.802;2023-11-19T09:28:50;2.23;;;1.30;;
11151;SDS011;5630;49.342;10.802;2023-11-19T09:31:16;2.63;;;1.43;;
11151;SDS011;5630;49.342;10.802;2023-11-19T09:33:42;4.67;;;1.67;;
11151;SDS011;5630;49.342;10.802;2023-11-19T09:36:09;4.13;;;1.50;;
11151;SDS011;5630;49.342;10.802;2023-11-19T09:38:38;2.93;;;1.53;;
11151;SDS011;5630;49.342;10.802;2023-11-19T09:41:04;3.60;;;1.80;;
11151;SDS011;5630;49.342;10.802;2023-11-19T09:43:34;4.13;;;1.70;;
11151;SDS011;5630;49.342;10.802;2023-11-19T09:46:04;5.93;;;2.40;;
11151;SDS011;5630;49.342;10.802;2023-11-19T09:48:35;4.13;;;2.20;;
11151;SDS011;5630;49.342;10.802;2023-11-19T09:51:05;2.70;;;1.60;;
11151;SDS011;5630;49.342;10.802;2023-11-19T09:53:32;5.20;;;1.80;;
11151;SDS011;5630;49.342;10.802;2023-11-19T09:56:02;4.77;;;1.63;;
11151;SDS011;5630;49.342;10.802;2023-11-19T09:58:28;3.23;;;2.00;;
11151;SDS011;5630;49.342;10.802;2023-11-19T10:00:55;3.10;;;1.60;;
11151;SDS011;5630;49.342;10.802;2023-11-19T10:03:24;2.87;;;1.50;;
11151;SDS011;5630;49.342;10.802;2023-11-19T10:05:51;7.13;;;1.60;;
11151;SDS011;5630;49.342;10.802;2023-11-19T10:08:19;1.53;;;0.90;;
11151;SDS011;5630;49.342;10.802;2023-11-19T10:10:44;4.07;;;1.60;;
11151;SDS011;5630;49.342;10.802;2023-11-19T10:13:10;2.03;;;1.50;;
11151;SDS011;5630;49.342;10.802;2023-11-19T10:15:36;2.80;;;1.33;;
11151;SDS011;5630;49.342;10.802;2023-11-19T10:18:02;4.10;;;1.43;;
11151;SDS011;5630;49.342;10.802;2023-11-19T10:20:38;2.97;;;1.40;;
11151;SDS011;5630;49.342;10.802;2023-11-19T10:23:06;1.83;;;1.20;;
11151;SDS011;5630;49.342;10.802;2023-11-19T10:25:32;3.40;;;1.53;;
11151;SDS011;5630;49.342;10.802;2023-11-19T10:27:58;4.17;;;2.13;;
11151;SDS011;5630;49.342;10.802;2023-11-19T10:30:29;3.30;;;1.30;;
11151;SDS011;5630;49.342;10.802;2023-11-19T10:33:11;2.80;;;1.70;;
11151;SDS011;5630;49.342;10.802;2023-11-19T10:35:52;3.87;;;1.87;;
11151;SDS011;5630;49.342;10.802;2023-11-19T10:38:18;3.87;;;1.80;;
11151;SDS011;5630;49.342;10.802;2023-11-19T10:40:44;4.20;;;1.60;;
11151;SDS011;5630;49.342;10.802;2023-11-19T10:43:10;2.57;;;1.60;;
11151;SDS011;5630;49.342;10.802;2023-11-19T10:45:36;3.03;;;1.60;;
11151;SDS011;5630;49.342;10.802;2023-11-19T10:48:03;3.00;;;1.43;;
11151;SDS011;5630;49.342;10.802;2023-11-19T10:50:33;3.73;;;1.63;;
11151;SDS011;5630;49.342;10.802;2023-11-19T10:53:03;2.73;;;1.47;;
11151;SDS011;5630;49.342;10.802;2023-11-19T10:55:32;2.20;;;1.20;;
11151;SDS011;5630;49.342;10.802;2023-11-19T10:58:09;3.43;;;1.40;;
11151;SDS011;5630;49.342;10.802;2023-11-19T11:00:45;2.50;;;1.40;;
11151;SDS011;5630;49.342;10.802;2023-11-19T11:05:49;2.80;;;1.40;;
11151;SDS011;5630;49.342;10.802;2023-11-19T11:08:16;1.67;;;1.20;;
11151;SDS011;5630;49.342;10.802;2023-11-19T11:10:44;3.40;;;1.53;;
11151;SDS011;5630;49.342;10.802;2023-11-19T11:13:20;5.40;;;1.60;;
11151;SDS011;5630;49.342;10.802;2023-11-19T11:15:48;3.33;;;1.50;;
11151;SDS011;5630;49.342;10.802;2023-11-19T11:18:15;2.67;;;1.50;;
11151;SDS011;5630;49.342;10.802;2023-11-19T11:20:44;5.23;;;1.40;;
11151;SDS011;5630;49.342;10.802;2023-11-19T11:26:08;3.87;;;1.40;;
11151;SDS011;5630;49.342;10.802;2023-11-19T11:28:58;4.20;;;1.60;;
11151;SDS011;5630;49.342;10.802;2023-11-19T11:31:48;3.43;;;1.37;;
11151;SDS011;5630;49.342;10.802;2023-11-19T11:39:53;3.20;;;2.00;;
11151;SDS011;5630;49.342;10.802;2023-11-19T11:45:06;5.30;;;2.40;;
11151;SDS011;5630;49.342;10.802;2023-11-19T11:50:11;4.53;;;1.83;;
11151;SDS011;5630;49.342;10.802;2023-11-19T11:57:50;2.77;;;1.70;;
11151;SDS011;5630;49.342;10.802;2023-11-19T12:00:26;4.00;;;1.87;;
11151;SDS011;5630;49.342;10.802;2023-11-19T12:02:54;3.03;;;1.57;;
11151;SDS011;5630;49.342;10.802;2023-11-19T12:05:27;3.73;;;1.90;;
11151;SDS011;5630;49.342;10.802;2023-11-19T12:07:54;3.17;;;1.63;;
11151;SDS011;5630;49.342;10.802;2023-11-19T12:10:20;2.20;;;1.33;;
11151;SDS011;5630;49.342;10.802;2023-11-19T12:12:47;3.33;;;1.30;;
11151;SDS011;5630;49.342;10.802;2023-11-19T12:15:13;2.07;;;1.43;;
11151;SDS011;5630;49.342;10.802;2023-11-19T12:17:44;3.53;;;1.23;;
11151;SDS011;5630;49.342;10.802;2023-11-19T12:20:16;2.53;;;1.40;;
11151;SDS011;5630;49.342;10.802;2023-11-19T12:22:43;2.87;;;1.37;;
11151;SDS011;5630;49.342;10.802;2023-11-19T12:25:10;2.80;;;1.40;;
11151;SDS011;5630;49.342;10.802;2023-11-19T12:27:42;3.17;;;1.53;;
11151;SDS011;5630;49.342;10.802;2023-11-19T12:30:32;3.47;;;1.30;;
11151;SDS011;5630;49.342;10.802;2023-11-19T12:32:58;2.13;;;1.10;;
11151;SDS011;5630;49.342;10.802;2023-11-19T12:35:24;2.90;;;1.70;;
11151;SDS011;5630;49.342;10.802;2023-11-19T12:37:50;5.50;;;2.03;;
11151;SDS011;5630;49.342;10.802;2023-11-19T12:40:22;3.87;;;2.23;;
11151;SDS011;5630;49.342;10.802;2023-11-19T12:42:49;2.57;;;1.90;;
11151;SDS011;5630;49.342;10.802;2023-11-19T12:45:16;12.23;;;1.60;;
11151;SDS011;5630;49.342;10.802;2023-11-19T12:47:44;3.93;;;1.60;;
11151;SDS011;5630;49.342;10.802;2023-11-19T12:50:12;2.93;;;1.27;;
11151;SDS011;5630;49.342;10.802;2023-11-19T12:52:37;3.67;;;1.40;;
11151;SDS011;5630;49.342;10.802;2023-11-19T12:55:25;4.73;;;1.57;;
11151;SDS011;5630;49.342;10.802;2023-11-19T12:57:54;4.27;;;2.03;;
11151;SDS011;5630;49.342;10.802;2023-11-19T13:00:21;8.80;;;2.00;;
11151;SDS011;5630;49.342;10.802;2023-11-19T13:02:48;2.97;;;1.40;;
11151;SDS011;5630;49.342;10.802;2023-11-19T13:07:57;4.30;;;1.37;;
11151;SDS011;5630;49.342;10.802;2023-11-19T13:10:34;3.77;;;1.37;;
11151;SDS011;5630;49.342;10.802;2023-11-19T13:13:15;6.17;;;1.53;;
11151;SDS011;5630;49.342;10.802;2023-11-19T13:15:42;4.60;;;1.40;;
11151;SDS011;5630;49.342;10.802;2023-11-19T13:18:10;3.53;;;1.40;;
11151;SDS011;5630;49.342;10.802;2023-11-19T13:20:36;5.53;;;1.37;;
11151;SDS011;5630;49.342;10.802;2023-11-19T13:23:02;2.10;;;1.20;;
11151;SDS011;5630;49.342;10.802;2023-11-19T13:25:29;3.27;;;1.47;;
11151;SDS011;5630;49.342;10.802;2023-11-19T13:27:55;5.00;;;1.30;;
11151;SDS011;5630;49.342;10.802;2023-11-19T13:30:22;2.73;;;1.57;;
11151;SDS011;5630;49.342;10.802;2023-11-19T13:32:49;6.53;;;2.20;;
11151;SDS011;5630;49.342;10.802;2023-11-19T13:35:15;4.07;;;1.63;;
11151;SDS011;5630;49.342;10.802;2023-11-19T13:37:44;4.93;;;1.30;;
11151;SDS011;5630;49.342;10.802;2023-11-19T13:40:11;2.87;;;1.20;;
11151;SDS011;5630;49.342;10.802;2023-11-19T13:42:41;2.80;;;1.17;;
11151;SDS011;5630;49.342;10.802;2023-11-19T13:45:10;2.67;;;1.30;;
11151;SDS011;5630;49.342;10.802;2023-11-19T13:47:38;5.47;;;1.40;;
11151;SDS011;5630;49.342;10.802;2023-11-19T13:50:07;4.10;;;1.40;;
11151;SDS011;5630;49.342;10.802;2023-11-19T13:52:36;4.33;;;1.03;;
11151;SDS011;5630;49.342;10.802;2023-11-19T13:55:04;2.90;;;1.30;;
11151;SDS011;5630;49.342;10.802;2023-11-19T13:57:31;2.70;;;1.37;;
11151;SDS011;5630;49.342;10.802;2023-11-19T13:59:57;2.17;;;1.10;;
11151;SDS011;5630;49.342;10.802;2023-11-19T14:02:22;4.53;;;1.30;;
11151;SDS011;5630;49.342;10.802;2023-11-19T14:04:48;1.93;;;1.23;;
11151;SDS011;5630;49.342;10.802;2023-11-19T14:07:14;3.23;;;1.40;;
11151;SDS011;5630;49.342;10.802;2023-11-19T14:09:41;5.40;;;1.60;;
11151;SDS011;5630;49.342;10.802;2023-11-19T14:12:07;2.73;;;1.50;;
11151;SDS011;5630;49.342;10.802;2023-11-19T14:14:34;2.10;;;1.20;;
11151;SDS011;5630;49.342;10.802;2023-11-19T14:17:01;3.50;;;1.50;;
11151;SDS011;5630;49.342;10.802;2023-11-19T14:19:28;5.60;;;1.50;;
11151;SDS011;5630;49.342;10.802;2023-11-19T14:21:54;3.67;;;1.67;;
11151;SDS011;5630;49.342;10.802;2023-11-19T14:24:19;4.13;;;2.00;;
11151;SDS011;5630;49.342;10.802;2023-11-19T14:26:46;4.07;;;1.70;;
11151;SDS011;5630;49.342;10.802;2023-11-19T14:29:16;2.03;;;1.50;;
11151;SDS011;5630;49.342;10.802;2023-11-19T14:31:42;3.13;;;1.47;;
11151;SDS011;5630;49.342;10.802;2023-11-19T14:34:07;3.30;;;1.73;;
11151;SDS011;5630;49.342;10.802;2023-11-19T14:36:33;3.63;;;1.63;;
11151;SDS011;5630;49.342;10.802;2023-11-19T14:38:59;5.90;;;1.37;;
11151;SDS011;5630;49.342;10.802;2023-11-19T14:41:25;3.83;;;1.47;;
11151;SDS011;5630;49.342;10.802;2023-11-19T14:43:51;2.30;;;1.17;;
11151;SDS011;5630;49.342;10.802;2023-11-19T14:46:17;6.00;;;1.70;;
11151;SDS011;5630;49.342;10.802;2023-11-19T14:48:43;3.10;;;1.60;;
11151;SDS011;5630;49.342;10.802;2023-11-19T14:51:08;1.93;;;1.37;;
11151;SDS011;5630;49.342;10.802;2023-11-19T14:53:34;2.93;;;1.40;;
11151;SDS011;5630;49.342;10.802;2023-11-19T14:56:00;35.27;;;2.17;;
11151;SDS011;5630;49.342;10.802;2023-11-19T14:58:27;5.47;;;1.60;;
11151;SDS011;5630;49.342;10.802;2023-11-19T15:00:52;3.40;;;1.80;;
11151;SDS011;5630;49.342;10.802;2023-11-19T15:03:18;4.20;;;2.03;;
11151;SDS011;5630;49.342;10.802;2023-11-19T15:05:47;2.40;;;1.60;;
11151;SDS011;5630;49.342;10.802;2023-11-19T15:08:13;3.73;;;1.60;;